createdAt,value
2019-05-29T00:00:52.443Z,98314.51
2019-05-29T00:02:56.263Z,98311.23
2019-05-29T00:05:00.177Z,98311.23
2019-05-29T00:07:10.147Z,98312.34
2019-05-29T00:09:14.295Z,98315.08
2019-05-29T00:11:18.426Z,98315.87
2019-05-29T00:13:22.352Z,98315.62
2019-05-29T00:15:26.299Z,98322.45
2019-05-29T00:17:32.057Z,98324.90
2019-05-29T00:19:35.910Z,98327.63
2019-05-29T00:21:39.806Z,98325.98
2019-05-29T00:23:43.868Z,98322.69
2019-05-29T00:25:47.807Z,98338.27
2019-05-29T00:27:51.752Z,98332.54
2019-05-29T00:29:55.516Z,98335.27
2019-05-29T00:31:59.302Z,98336.65
2019-05-29T00:34:03.301Z,98335.27
2019-05-29T00:36:08.234Z,98334.73
2019-05-29T00:38:12.632Z,98334.98
2019-05-29T00:40:17.219Z,98336.89
2019-05-29T00:42:21.119Z,98337.99
2019-05-29T00:44:33.962Z,98338.53
2019-05-29T00:46:30.609Z,98341.80
2019-05-29T00:48:34.452Z,98340.70
2019-05-29T00:50:38.415Z,98338.51
2019-05-29T00:52:42.294Z,98345.63
2019-05-29T00:54:46.225Z,98337.95
2019-05-29T00:56:50.110Z,98343.41
2019-05-29T00:58:54.064Z,98337.66
2019-05-29T01:00:57.870Z,98344.48
2019-05-29T01:03:01.786Z,98348.03
2019-05-29T01:05:06.960Z,98349.69
2019-05-29T01:07:12.208Z,98355.16
2019-05-29T01:09:16.512Z,98367.99
2019-05-29T01:11:20.979Z,98360.61
2019-05-29T01:13:25.306Z,98361.97
2019-05-29T01:15:29.241Z,98357.03
2019-05-29T01:17:32.976Z,98360.59
2019-05-29T01:19:36.994Z,98361.67
2019-05-29T01:21:41.616Z,98369.02
2019-05-29T01:23:45.527Z,98362.72
2019-05-29T01:25:51.091Z,98373.39
2019-05-29T01:27:54.986Z,98376.66
2019-05-29T01:29:58.727Z,98381.56
2019-05-29T01:32:02.592Z,98386.20
2019-05-29T01:34:06.594Z,98385.67
2019-05-29T01:36:10.403Z,98385.39
2019-05-29T01:38:15.181Z,98386.51
2019-05-29T01:40:24.432Z,98388.97
2019-05-29T01:42:24.774Z,98386.78
2019-05-29T01:44:28.740Z,98386.80
2019-05-29T01:46:32.881Z,98392.56
2019-05-29T01:48:36.673Z,98390.66
2019-05-29T01:50:40.610Z,98389.55
2019-05-29T01:52:44.487Z,98400.49
2019-05-29T01:54:48.391Z,98402.14
2019-05-29T01:56:52.314Z,98401.01
2019-05-29T01:58:56.214Z,98409.47
2019-05-29T02:01:00.107Z,98407.27
2019-05-29T02:03:04.227Z,98407.53
2019-05-29T02:05:08.293Z,98406.98
2019-05-29T02:07:12.365Z,98407.52
2019-05-29T02:09:16.130Z,98415.45
2019-05-29T02:11:21.234Z,98415.98
2019-05-29T02:13:25.152Z,98424.17
2019-05-29T02:15:32.510Z,98428.53
2019-05-29T02:17:34.698Z,98424.71
2019-05-29T02:19:38.518Z,98423.87
2019-05-29T02:21:42.431Z,98427.67
2019-05-29T02:23:46.436Z,98431.23
2019-05-29T02:25:50.839Z,98431.79
2019-05-29T02:27:54.733Z,98433.98
2019-05-29T02:29:58.683Z,98437.55
2019-05-29T02:32:02.710Z,98431.80
2019-05-29T02:34:07.423Z,98435.91
2019-05-29T02:36:11.638Z,98435.39
2019-05-29T02:38:15.555Z,98443.89
2019-05-29T02:40:21.267Z,98443.59
2019-05-29T02:42:25.662Z,98450.44
2019-05-29T02:44:32.436Z,98447.72
2019-05-29T02:46:36.215Z,98453.20
2019-05-29T02:48:40.229Z,98452.39
2019-05-29T02:50:44.698Z,98457.61
2019-05-29T02:52:48.542Z,98459.77
2019-05-29T02:54:52.477Z,98458.14
2019-05-29T02:56:56.345Z,98464.69
2019-05-29T02:59:00.263Z,98467.41
2019-05-29T03:01:04.414Z,98469.05
2019-05-29T03:03:08.343Z,98476.95
2019-05-29T03:05:12.472Z,98482.42
2019-05-29T03:07:16.559Z,98478.31
2019-05-29T03:09:20.540Z,98483.23
2019-05-29T03:11:26.631Z,98484.89
2019-05-29T03:13:31.699Z,98493.35
2019-05-29T03:15:36.032Z,98488.98
2019-05-29T03:17:39.944Z,98487.84
2019-05-29T03:19:43.823Z,98494.11
2019-05-29T03:21:47.748Z,98502.31
2019-05-29T03:23:51.622Z,98501.78
2019-05-29T03:25:55.664Z,98510.80
2019-05-29T03:27:59.429Z,98512.97
2019-05-29T03:30:03.515Z,98517.06
2019-05-29T03:32:13.353Z,98519.56
2019-05-29T03:34:12.815Z,98522.31
2019-05-29T03:36:16.725Z,98525.04
2019-05-29T03:38:20.589Z,98522.02
2019-05-29T03:40:26.368Z,98520.08
2019-05-29T03:42:30.405Z,98530.16
2019-05-29T03:44:35.392Z,98530.14
2019-05-29T03:46:45.232Z,98531.76
2019-05-29T03:48:45.107Z,98532.55
2019-05-29T03:50:49.044Z,98538.75
2019-05-29T03:52:52.820Z,98532.70
2019-05-29T03:54:56.761Z,98541.41
2019-05-29T03:57:00.644Z,98542.78
2019-05-29T03:59:04.652Z,98545.55
2019-05-29T04:01:08.460Z,98548.06
2019-05-29T04:03:12.440Z,98548.35
2019-05-29T04:05:16.461Z,98554.63
2019-05-29T04:07:20.375Z,98553.28
2019-05-29T04:09:24.289Z,98565.58
2019-05-29T04:11:29.295Z,98563.67
2019-05-29T04:13:34.096Z,98571.06
2019-05-29T04:15:40.720Z,98569.72
2019-05-29T04:17:46.044Z,98572.48
2019-05-29T04:19:55.716Z,98578.25
2019-05-29T04:22:04.336Z,98575.27
2019-05-29T04:24:08.357Z,98577.78
2019-05-29T04:26:15.799Z,98581.33
2019-05-29T04:28:20.953Z,98593.06
2019-05-29T04:30:24.847Z,98590.30
2019-05-29T04:32:29.854Z,98596.86
2019-05-29T04:34:35.735Z,98596.59
2019-05-29T04:36:39.862Z,98602.38
2019-05-29T04:38:43.817Z,98594.45
2019-05-29T04:40:47.627Z,98606.52
2019-05-29T04:42:51.638Z,98607.05
2019-05-29T04:44:55.428Z,98615.27
2019-05-29T04:47:10.478Z,98616.08
2019-05-29T04:49:05.070Z,98626.20
2019-05-29T04:51:09.005Z,98628.69
2019-05-29T04:53:12.940Z,98625.99
2019-05-29T04:55:16.859Z,98632.31
2019-05-29T04:57:20.685Z,98627.67
2019-05-29T04:59:24.633Z,98635.89
2019-05-29T05:01:29.039Z,98647.09
2019-05-29T05:03:33.254Z,98644.34
2019-05-29T05:05:37.490Z,98638.61
2019-05-29T05:07:41.744Z,98648.73
2019-05-29T05:09:46.029Z,98651.77
2019-05-29T05:11:49.999Z,98654.73
2019-05-29T05:13:53.981Z,98650.64
2019-05-29T05:16:00.152Z,98659.94
2019-05-29T05:18:05.122Z,98659.11
2019-05-29T05:20:09.164Z,98665.41
2019-05-29T05:22:13.089Z,98664.60
2019-05-29T05:24:16.980Z,98671.44
2019-05-29T05:26:20.886Z,98672.80
2019-05-29T05:28:24.819Z,98671.16
2019-05-29T05:30:30.276Z,98677.76
2019-05-29T05:32:34.867Z,98678.30
2019-05-29T05:34:38.859Z,98671.48
2019-05-29T05:36:42.687Z,98682.41
2019-05-29T05:38:46.554Z,98689.81
2019-05-29T05:40:50.469Z,98689.81
2019-05-29T05:42:54.254Z,98691.45
2019-05-29T05:44:58.069Z,98691.67
2019-05-29T05:47:01.826Z,98694.16
2019-05-29T05:49:05.623Z,98698.52
2019-05-29T05:51:09.426Z,98697.98
2019-05-29T05:53:13.167Z,98700.42
2019-05-29T05:55:17.551Z,98711.34
2019-05-29T05:57:21.269Z,98705.56
2019-05-29T05:59:25.020Z,98710.69
2019-05-29T06:01:28.763Z,98719.42
2019-05-29T06:03:33.850Z,98722.72
2019-05-29T06:05:38.220Z,98729.02
2019-05-29T06:07:42.542Z,98728.27
2019-05-29T06:09:46.477Z,98723.03
2019-05-29T06:11:50.247Z,98722.23
2019-05-29T06:13:54.062Z,98725.02
2019-05-29T06:15:57.887Z,98723.96
2019-05-29T06:18:19.840Z,98727.28
2019-05-29T06:20:07.530Z,98734.46
2019-05-29T06:22:11.264Z,98727.67
2019-05-29T06:24:14.989Z,98739.73
2019-05-29T06:26:18.799Z,98738.16
2019-05-29T06:28:22.634Z,98734.92
2019-05-29T06:30:28.883Z,98736.42
2019-05-29T06:32:33.440Z,98745.77
2019-05-29T06:34:37.517Z,98748.81
2019-05-29T06:36:41.868Z,98755.13
2019-05-29T06:38:45.619Z,98748.88
2019-05-29T06:40:49.379Z,98749.70
2019-05-29T06:42:53.183Z,98755.50
2019-05-29T06:44:57.069Z,98750.91
2019-05-29T06:47:00.889Z,98757.23
2019-05-29T06:49:04.861Z,98758.03
2019-05-29T06:51:08.768Z,98758.84
2019-05-29T06:53:12.684Z,98764.06
2019-05-29T06:55:16.411Z,98777.49
2019-05-29T06:57:20.163Z,98778.31
2019-05-29T06:59:25.936Z,98774.46
2019-05-29T07:01:29.800Z,98775.55
2019-05-29T07:03:33.746Z,98776.11
2019-05-29T07:05:37.749Z,98778.55
2019-05-29T07:07:42.440Z,98786.23
2019-05-29T07:09:47.194Z,98787.38
2019-05-29T07:11:50.974Z,98798.60
2019-05-29T07:13:54.783Z,98799.98
2019-05-29T07:15:58.495Z,98800.00
2019-05-29T07:18:02.391Z,98812.64
2019-05-29T07:20:07.277Z,98806.89
2019-05-29T07:22:11.008Z,98812.66
2019-05-29T07:24:14.736Z,98816.78
2019-05-29T07:26:18.483Z,98824.49
2019-05-29T07:28:22.220Z,98822.03
2019-05-29T07:30:26.295Z,98823.42
2019-05-29T07:32:30.123Z,98828.38
2019-05-29T07:34:49.725Z,98829.75
2019-05-29T07:36:39.940Z,98831.66
2019-05-29T07:38:53.731Z,98839.02
2019-05-29T07:40:50.062Z,98845.86
2019-05-29T07:42:56.810Z,98837.11
2019-05-29T07:44:59.507Z,98844.81
2019-05-29T07:47:03.236Z,98846.49
2019-05-29T07:49:06.974Z,98852.77
2019-05-29T07:51:10.809Z,98859.62
2019-05-29T07:53:14.642Z,98856.88
2019-05-29T07:55:19.209Z,98859.38
2019-05-29T07:57:22.929Z,98856.34
2019-05-29T07:59:28.684Z,98864.56
2019-05-29T08:01:32.339Z,98869.78
2019-05-29T08:03:36.077Z,98868.66
2019-05-29T08:05:41.105Z,98868.92
2019-05-29T08:07:45.528Z,98862.62
2019-05-29T08:09:49.852Z,98867.02
2019-05-29T08:11:53.620Z,98864.02
2019-05-29T08:13:57.427Z,98870.61
2019-05-29T08:16:02.955Z,98881.88
2019-05-29T08:18:06.620Z,98880.83
2019-05-29T08:20:10.804Z,98878.91
2019-05-29T08:22:14.676Z,98883.86
2019-05-29T08:24:18.402Z,98883.06
2019-05-29T08:26:22.186Z,98885.30
2019-05-29T08:28:26.014Z,98886.95
2019-05-29T08:30:29.871Z,98890.80
2019-05-29T08:32:33.826Z,98887.59
2019-05-29T08:34:37.553Z,98892.38
2019-05-29T08:36:55.807Z,98894.09
2019-05-29T08:38:47.369Z,98897.95
2019-05-29T08:40:51.527Z,98902.38
2019-05-29T08:42:55.352Z,98900.19
2019-05-29T08:44:59.089Z,98910.35
2019-05-29T08:47:10.114Z,98908.19
2019-05-29T08:49:08.309Z,98911.47
2019-05-29T08:51:12.029Z,98909.55
2019-05-29T08:53:15.779Z,98908.98
2019-05-29T08:55:19.607Z,98917.49
2019-05-29T08:57:23.502Z,98924.35
2019-05-29T08:59:27.241Z,98920.77
2019-05-29T09:01:31.049Z,98930.66
2019-05-29T09:03:34.826Z,98933.13
2019-05-29T09:05:38.738Z,98933.41
2019-05-29T09:07:43.349Z,98931.22
2019-05-29T09:09:47.586Z,98931.75
2019-05-29T09:11:51.890Z,98937.52
2019-05-29T09:13:55.611Z,98936.40
2019-05-29T09:15:59.358Z,98935.03
2019-05-29T09:18:03.117Z,98940.80
2019-05-29T09:20:25.497Z,98941.89
2019-05-29T09:22:14.824Z,98950.41
2019-05-29T09:24:19.380Z,98952.33
2019-05-29T09:26:25.827Z,98953.73
2019-05-29T09:28:27.384Z,98956.78
2019-05-29T09:30:31.193Z,98957.88
2019-05-29T09:32:49.595Z,98956.53
2019-05-29T09:34:40.386Z,98963.39
2019-05-29T09:36:44.154Z,98963.91
2019-05-29T09:38:48.206Z,98976.25
2019-05-29T09:40:52.855Z,98975.99
2019-05-29T09:42:56.935Z,98979.58
2019-05-29T09:45:00.597Z,98979.58
2019-05-29T09:47:04.598Z,98981.47
2019-05-29T09:49:08.462Z,98981.72
2019-05-29T09:51:21.038Z,98986.95
2019-05-29T09:53:17.753Z,98981.98
2019-05-29T09:55:21.633Z,98993.78
2019-05-29T09:57:25.358Z,98991.59
2019-05-29T09:59:29.086Z,99000.13
2019-05-29T10:01:32.889Z,98993.81
2019-05-29T10:03:36.616Z,98995.72
2019-05-29T10:05:40.441Z,99002.02
2019-05-29T10:07:44.170Z,99002.84
2019-05-29T10:09:47.967Z,99002.29
2019-05-29T10:11:51.764Z,99005.88
2019-05-29T10:13:56.981Z,99008.65
2019-05-29T10:16:02.754Z,99006.22
2019-05-29T10:18:13.290Z,99011.44
2019-05-29T10:20:14.322Z,99018.59
2019-05-29T10:22:18.068Z,99015.58
2019-05-29T10:24:21.924Z,99016.98
2019-05-29T10:26:25.670Z,99018.37
2019-05-29T10:30:34.910Z,99022.52
2019-05-29T10:31:02.108Z,99023.34
2019-05-29T10:32:38.785Z,99025.00
2019-05-29T10:34:42.543Z,99029.37
2019-05-29T10:36:49.923Z,99031.86
2019-05-29T10:38:52.705Z,99026.63
2019-05-29T10:41:06.293Z,99034.01
2019-05-29T10:43:02.229Z,99029.31
2019-05-29T10:45:07.137Z,99037.27
2019-05-29T10:47:10.958Z,99034.23
2019-05-29T10:49:15.474Z,99035.33
2019-05-29T10:51:19.222Z,99032.59
2019-05-29T10:53:22.952Z,99044.13
2019-05-29T10:55:26.712Z,99038.33
2019-05-29T10:57:30.448Z,99036.66
2019-05-29T10:59:34.186Z,99037.78
2019-05-29T11:01:37.908Z,99039.42
2019-05-29T11:03:41.659Z,99038.64
2019-05-29T11:05:45.689Z,99041.12
2019-05-29T11:07:49.717Z,99040.07
2019-05-29T11:09:54.293Z,99039.00
2019-05-29T11:11:58.134Z,99039.34
2019-05-29T11:14:01.927Z,99039.92
2019-05-29T11:16:05.795Z,99043.28
2019-05-29T11:18:09.626Z,99047.73
2019-05-29T11:20:15.359Z,99044.17
2019-05-29T11:22:26.078Z,99046.38
2019-05-29T11:24:24.700Z,99046.38
2019-05-29T11:26:28.505Z,99041.97
2019-05-29T11:28:32.306Z,99044.47
2019-05-29T11:30:36.049Z,99047.22
2019-05-29T11:32:39.963Z,99041.97
2019-05-29T11:34:43.771Z,99049.13
2019-05-29T11:36:47.499Z,99051.34
2019-05-29T11:38:52.448Z,99052.17
2019-05-29T11:41:19.387Z,99050.78
2019-05-29T11:43:03.197Z,99053.27
2019-05-29T11:45:08.167Z,99054.63
2019-05-29T11:47:11.892Z,99056.28
2019-05-29T11:49:15.632Z,99063.42
2019-05-29T11:51:19.389Z,99056.55
2019-05-29T11:53:23.180Z,99068.38
2019-05-29T11:55:26.933Z,99070.05
2019-05-29T11:57:30.747Z,99070.05
2019-05-29T11:59:34.529Z,99066.47
2019-05-29T12:01:49.658Z,99062.91
2019-05-29T12:04:08.463Z,99056.27
2019-05-29T12:05:49.419Z,99055.64
2019-05-29T12:07:53.543Z,99057.17
2019-05-29T12:09:57.602Z,99056.83
2019-05-29T12:12:02.167Z,99055.11
2019-05-29T12:14:06.354Z,99054.75
2019-05-29T12:16:10.253Z,99050.00
2019-05-29T12:18:23.673Z,99050.46
2019-05-29T12:20:28.732Z,99048.80
2019-05-29T12:22:25.448Z,99053.22
2019-05-29T12:24:29.341Z,99044.23
2019-05-29T12:26:33.173Z,99050.92
2019-05-29T12:28:37.114Z,99042.70
2019-05-29T12:30:40.937Z,99052.12
2019-05-29T12:32:44.809Z,99048.27
2019-05-29T12:34:53.738Z,99051.90
2019-05-29T12:36:55.330Z,99041.44
2019-05-29T12:38:59.630Z,99043.13
2019-05-29T12:41:03.856Z,99051.16
2019-05-29T12:43:25.555Z,99055.35
2019-05-29T12:45:13.973Z,99051.55
2019-05-29T12:47:17.703Z,99051.58
2019-05-29T12:49:21.438Z,99053.23
2019-05-29T12:51:25.382Z,99054.08
2019-05-29T12:53:31.171Z,99060.96
2019-05-29T12:55:34.805Z,99055.71
2019-05-29T12:57:38.711Z,99059.30
2019-05-29T12:59:45.234Z,99061.21
2019-05-29T13:01:48.977Z,99062.04
2019-05-29T13:03:54.114Z,99068.10
2019-05-29T13:05:58.255Z,99069.22
2019-05-29T13:08:03.068Z,99074.17
2019-05-29T13:10:07.724Z,99069.20
2019-05-29T13:12:11.523Z,99068.36
2019-05-29T13:14:15.413Z,99073.86
2019-05-29T13:16:19.147Z,99072.75
2019-05-29T13:18:22.990Z,99072.75
2019-05-29T13:20:26.779Z,99076.05
2019-05-29T13:22:30.607Z,99076.86
2019-05-29T13:24:34.418Z,99070.83
2019-05-29T13:26:38.262Z,99077.15
2019-05-29T13:28:41.984Z,99073.31
2019-05-29T13:30:45.716Z,99073.86
2019-05-29T13:32:49.461Z,99068.11
2019-05-29T13:34:53.221Z,99063.14
2019-05-29T13:37:00.629Z,99070.27
2019-05-29T13:39:02.499Z,99058.66
2019-05-29T13:41:06.615Z,99065.47
2019-05-29T13:43:15.187Z,99063.75
2019-05-29T13:45:18.668Z,99058.45
2019-05-29T13:47:22.810Z,99068.90
2019-05-29T13:49:26.496Z,99067.81
2019-05-29T13:51:30.228Z,99067.23
2019-05-29T13:53:34.175Z,99068.36
2019-05-29T13:55:37.982Z,99068.11
2019-05-29T13:57:41.948Z,99073.63
2019-05-29T13:59:45.745Z,99071.22
2019-05-29T14:01:49.491Z,99073.71
2019-05-29T14:03:53.383Z,99074.55
2019-05-29T14:05:58.653Z,99069.84
2019-05-29T14:08:02.795Z,99071.73
2019-05-29T14:10:07.773Z,99071.69
2019-05-29T14:12:12.268Z,99071.13
2019-05-29T14:14:16.146Z,99074.36
2019-05-29T14:16:20.118Z,99075.42
2019-05-29T14:18:23.982Z,99082.05
2019-05-29T14:20:27.937Z,99084.27
2019-05-29T14:22:31.869Z,99081.75
2019-05-29T14:24:35.672Z,99085.89
2019-05-29T14:26:39.590Z,99085.09
2019-05-29T14:28:43.476Z,99082.11
2019-05-29T14:30:47.489Z,99086.52
2019-05-29T14:32:51.325Z,99084.08
2019-05-29T14:34:55.202Z,99089.86
2019-05-29T14:36:59.155Z,99090.65
2019-05-29T14:39:03.703Z,99085.71
2019-05-29T14:41:08.207Z,99088.20
2019-05-29T14:43:15.360Z,99086.82
2019-05-29T14:45:17.769Z,99091.80
2019-05-29T14:47:21.777Z,99093.73
2019-05-29T14:49:27.021Z,99089.32
2019-05-29T14:51:32.267Z,99090.14
2019-05-29T14:53:36.891Z,99091.53
2019-05-29T14:55:40.630Z,99089.91
2019-05-29T14:57:44.506Z,99088.23
2019-05-29T14:59:48.404Z,99086.33
2019-05-29T15:01:52.145Z,99091.84
2019-05-29T15:03:56.023Z,99091.81
2019-05-29T15:05:59.927Z,99092.92
2019-05-29T15:08:03.992Z,99095.98
2019-05-29T15:10:21.667Z,99099.00
2019-05-29T15:12:14.337Z,99097.92
2019-05-29T15:14:18.029Z,99101.22
2019-05-29T15:16:21.879Z,99094.84
2019-05-29T15:18:25.799Z,99103.09
2019-05-29T15:20:29.764Z,99107.81
2019-05-29T15:22:33.594Z,99105.85
2019-05-29T15:24:37.582Z,99104.45
2019-05-29T15:26:41.408Z,99103.61
2019-05-29T15:28:45.155Z,99111.28
2019-05-29T15:30:49.002Z,99107.13
2019-05-29T15:32:52.782Z,99113.72
2019-05-29T15:34:56.497Z,99111.50
2019-05-29T15:37:00.305Z,99113.70
2019-05-29T15:39:06.475Z,99116.17
2019-05-29T15:41:10.718Z,99112.86
2019-05-29T15:43:15.350Z,99121.15
2019-05-29T15:45:21.399Z,99116.73
2019-05-29T15:47:26.197Z,99119.48
2019-05-29T15:49:30.873Z,99117.30
2019-05-29T15:51:34.648Z,99117.30
2019-05-29T15:53:39.434Z,99117.86
2019-05-29T15:55:43.305Z,99118.95
2019-05-29T15:57:47.131Z,99116.75
2019-05-29T15:59:51.093Z,99126.70
2019-05-29T16:01:54.819Z,99120.64
2019-05-29T16:03:58.646Z,99118.73
2019-05-29T16:06:02.569Z,99118.16
2019-05-29T16:08:07.851Z,99121.52
2019-05-29T16:10:16.470Z,99117.37
2019-05-29T16:12:19.151Z,99126.21
2019-05-29T16:14:22.922Z,99123.76
2019-05-29T16:16:26.870Z,99120.23
2019-05-29T16:18:30.698Z,99129.56
2019-05-29T16:20:34.733Z,99127.11
2019-05-29T16:22:38.512Z,99129.28
2019-05-29T16:24:42.428Z,99130.42
2019-05-29T16:26:46.168Z,99127.38
2019-05-29T16:28:50.109Z,99131.51
2019-05-29T16:30:53.944Z,99125.44
2019-05-29T16:32:57.825Z,99131.49
2019-05-29T16:35:01.730Z,99131.23
2019-05-29T16:37:05.800Z,99128.71
2019-05-29T16:39:09.618Z,99127.06
2019-05-29T16:41:13.850Z,99128.97
2019-05-29T16:43:18.117Z,99123.71
2019-05-29T16:45:22.472Z,99128.14
2019-05-29T16:47:26.364Z,99129.81
2019-05-29T16:49:30.106Z,99131.98
2019-05-29T16:51:33.949Z,99131.97
2019-05-29T16:53:37.903Z,99132.80
2019-05-29T16:55:53.431Z,99132.80
2019-05-29T16:57:47.372Z,99131.98
2019-05-29T16:59:51.121Z,99139.72
2019-05-29T17:01:55.079Z,99139.20
2019-05-29T17:03:58.926Z,99148.31
2019-05-29T17:06:02.757Z,99145.81
2019-05-29T17:08:06.571Z,99150.80
2019-05-29T17:10:11.109Z,99145.57
2019-05-29T17:12:14.861Z,99140.62
2019-05-29T17:14:18.589Z,99147.48
2019-05-29T17:16:22.678Z,99151.34
2019-05-29T17:18:26.581Z,99141.99
2019-05-29T17:20:42.108Z,99142.55
2019-05-29T17:22:46.090Z,99142.86
2019-05-29T17:24:49.902Z,99155.83
2019-05-29T17:26:53.670Z,99139.60
2019-05-29T17:28:57.577Z,99147.88
2019-05-29T17:31:02.491Z,99149.27
2019-05-29T17:33:07.009Z,99158.92
2019-05-29T17:35:10.880Z,99159.48
2019-05-29T17:37:15.170Z,99155.90
2019-05-29T17:39:20.315Z,99157.27
2019-05-29T17:41:25.348Z,99152.32
2019-05-29T17:43:29.288Z,99151.23
2019-05-29T17:45:33.102Z,99156.46
2019-05-29T17:47:36.930Z,99158.67
2019-05-29T17:49:40.719Z,99156.75
2019-05-29T17:51:44.568Z,99156.47
2019-05-29T17:53:48.344Z,99161.14
2019-05-29T17:55:52.217Z,99156.76
2019-05-29T17:57:56.027Z,99163.64
2019-05-29T17:59:59.814Z,99164.19
2019-05-29T18:02:03.986Z,99172.16
2019-05-29T18:04:07.905Z,99169.95
2019-05-29T18:06:11.826Z,99173.55
2019-05-29T18:08:16.667Z,99177.42
2019-05-29T18:10:22.800Z,99173.55
2019-05-29T18:12:27.162Z,99177.67
2019-05-29T18:14:31.041Z,99177.95
2019-05-29T18:16:34.793Z,99176.04
2019-05-29T18:18:38.647Z,99180.42
2019-05-29T18:20:42.394Z,99178.79
2019-05-29T18:22:46.331Z,99186.22
2019-05-29T18:24:50.162Z,99180.39
2019-05-29T18:26:53.898Z,99191.14
2019-05-29T18:28:57.644Z,99187.27
2019-05-29T18:31:01.451Z,99193.05
2019-05-29T18:33:05.424Z,99196.34
2019-05-29T18:35:09.844Z,99196.89
2019-05-29T18:37:13.806Z,99199.64
2019-05-29T18:39:17.844Z,99203.22
2019-05-29T18:41:22.245Z,99202.67
2019-05-29T18:43:26.651Z,99204.59
2019-05-29T18:45:30.718Z,99202.11
2019-05-29T18:47:34.522Z,99209.53
2019-05-29T18:49:38.310Z,99211.44
2019-05-29T18:51:42.052Z,99212.52
2019-05-29T18:53:46.933Z,99215.27
2019-05-29T18:55:50.692Z,99217.21
2019-05-29T18:57:54.531Z,99215.00
2019-05-29T18:59:58.377Z,99216.37
2019-05-29T19:02:02.313Z,99221.58
2019-05-29T19:04:06.376Z,99224.32
2019-05-29T19:06:10.272Z,99227.04
2019-05-29T19:08:14.217Z,99229.52
2019-05-29T19:10:18.430Z,99237.17
2019-05-29T19:12:22.205Z,99231.11
2019-05-29T19:14:26.126Z,99234.38
2019-05-29T19:16:30.064Z,99245.64
2019-05-29T19:18:33.989Z,99247.84
2019-05-29T19:20:37.844Z,99250.81
2019-05-29T19:22:41.669Z,99249.42
2019-05-29T19:24:46.772Z,99256.00
2019-05-29T19:26:50.647Z,99251.83
2019-05-29T19:28:55.355Z,99258.06
2019-05-29T19:30:59.236Z,99261.87
2019-05-29T19:33:03.112Z,99270.06
2019-05-29T19:35:07.435Z,99275.55
2019-05-29T19:37:11.273Z,99277.14
2019-05-29T19:39:15.283Z,99287.03
2019-05-29T19:41:19.088Z,99285.89
2019-05-29T19:43:24.085Z,99285.00
2019-05-29T19:45:28.548Z,99288.49
2019-05-29T19:47:32.762Z,99290.85
2019-05-29T19:49:36.601Z,99292.42
2019-05-29T19:51:40.497Z,99289.63
2019-05-29T19:53:44.387Z,99293.11
2019-05-29T19:55:48.321Z,99299.91
2019-05-29T19:57:56.128Z,99296.28
2019-05-29T19:59:57.739Z,99302.49
2019-05-29T20:02:01.674Z,99302.98
2019-05-29T20:04:05.569Z,99310.52
2019-05-29T20:06:09.480Z,99311.56
2019-05-29T20:08:13.445Z,99311.77
2019-05-29T20:10:17.706Z,99319.70
2019-05-29T20:12:21.580Z,99310.03
2019-05-29T20:14:25.541Z,99314.32
2019-05-29T20:16:30.087Z,99317.00
2019-05-29T20:18:34.230Z,99324.88
2019-05-29T20:20:38.726Z,99326.75
2019-05-29T20:22:42.744Z,99323.68
2019-05-29T20:24:46.701Z,99335.41
2019-05-29T20:26:50.568Z,99331.23
2019-05-29T20:28:54.305Z,99334.20
2019-05-29T20:30:58.131Z,99337.93
2019-05-29T20:33:02.146Z,99336.83
2019-05-29T20:35:06.082Z,99347.22
2019-05-29T20:37:09.969Z,99341.43
2019-05-29T20:39:13.756Z,99342.72
2019-05-29T20:41:17.471Z,99343.14
2019-05-29T20:43:21.297Z,99342.72
2019-05-29T20:45:25.063Z,99345.42
2019-05-29T20:47:28.783Z,99345.37
2019-05-29T20:49:33.796Z,99348.83
2019-05-29T20:51:38.247Z,99352.06
2019-05-29T20:53:42.120Z,99346.50
2019-05-29T20:55:46.031Z,99353.61
2019-05-29T20:57:49.934Z,99351.05
2019-05-29T20:59:53.669Z,99351.45
2019-05-29T21:01:57.541Z,99355.17
2019-05-29T21:04:01.282Z,99361.92
2019-05-29T21:06:05.635Z,99365.09
2019-05-29T21:08:09.555Z,99365.05
2019-05-29T21:10:13.754Z,99369.64
2019-05-29T21:12:17.545Z,99367.70
2019-05-29T21:14:21.296Z,99367.12
2019-05-29T21:16:25.150Z,99370.69
2019-05-29T21:18:28.955Z,99370.20
2019-05-29T21:20:38.401Z,99374.89
2019-05-29T21:22:42.937Z,99376.79
2019-05-29T21:24:58.273Z,99377.05
2019-05-29T21:26:52.651Z,99370.16
2019-05-29T21:28:56.469Z,99370.64
2019-05-29T21:31:00.571Z,99372.50
2019-05-29T21:33:04.724Z,99372.14
2019-05-29T21:35:09.078Z,99379.14
2019-05-29T21:37:12.811Z,99376.84
2019-05-29T21:39:16.700Z,99376.52
2019-05-29T21:41:20.525Z,99382.41
2019-05-29T21:43:24.350Z,99384.47
2019-05-29T21:45:28.325Z,99383.47
2019-05-29T21:47:32.167Z,99384.73
2019-05-29T21:49:37.235Z,99381.01
2019-05-29T21:51:41.527Z,99395.98
2019-05-29T21:53:45.535Z,99398.36
2019-05-29T21:55:49.490Z,99407.70
2019-05-29T21:57:53.563Z,99404.19
2019-05-29T21:59:57.568Z,99397.83
2019-05-29T22:02:01.741Z,99401.29
2019-05-29T22:04:05.666Z,99395.71
2019-05-29T22:06:09.483Z,99399.45
2019-05-29T22:08:13.413Z,99403.48
2019-05-29T22:10:17.561Z,99399.64
2019-05-29T22:12:21.392Z,99398.80
2019-05-29T22:14:25.517Z,99401.27
2019-05-29T22:16:29.321Z,99398.47
2019-05-29T22:18:33.275Z,99399.47
2019-05-29T22:20:37.214Z,99401.84
2019-05-29T22:22:41.174Z,99399.55
2019-05-29T22:24:45.073Z,99402.75
2019-05-29T22:26:48.777Z,99402.50
2019-05-29T22:28:53.120Z,99403.87
2019-05-29T22:30:57.371Z,99406.07
2019-05-29T22:33:01.933Z,99406.07
2019-05-29T22:35:06.090Z,99411.22
2019-05-29T22:37:09.902Z,99414.62
2019-05-29T22:39:13.744Z,99409.62
2019-05-29T22:41:17.492Z,99409.62
2019-05-29T22:43:21.339Z,99416.77
2019-05-29T22:45:25.394Z,99416.45
2019-05-29T22:47:29.344Z,99416.61
2019-05-29T22:49:33.266Z,99422.31
2019-05-29T22:51:37.020Z,99417.54
2019-05-29T22:53:40.861Z,99415.84
2019-05-29T22:55:44.758Z,99415.99
2019-05-29T22:57:48.647Z,99414.50
2019-05-29T22:59:53.745Z,99417.70
2019-05-29T23:01:58.224Z,99419.91
2019-05-29T23:04:02.570Z,99419.69
2019-05-29T23:06:06.500Z,99422.35
2019-05-29T23:08:10.560Z,99424.95
2019-05-29T23:10:15.205Z,99417.69
2019-05-29T23:12:19.254Z,99417.04
2019-05-29T23:14:23.183Z,99424.08
2019-05-29T23:16:48.385Z,99417.75
2019-05-29T23:18:52.453Z,99423.14
2019-05-29T23:20:56.393Z,99420.03
2019-05-29T23:23:00.797Z,99424.84
2019-05-29T23:25:05.286Z,99420.48
2019-05-29T23:27:09.345Z,99415.94
2019-05-29T23:29:13.232Z,99419.38
2019-05-29T23:31:17.161Z,99421.96
2019-05-29T23:33:21.058Z,99422.28
2019-05-29T23:35:24.962Z,99426.23
2019-05-29T23:37:28.843Z,99422.59
2019-05-29T23:39:34.435Z,99421.72
2019-05-29T23:41:38.298Z,99424.90
2019-05-29T23:43:42.210Z,99417.70
2019-05-29T23:45:45.952Z,99421.72
2019-05-29T23:47:49.826Z,99421.89
2019-05-29T23:49:53.753Z,99427.48
2019-05-29T23:51:57.631Z,99422.44
2019-05-29T23:54:01.875Z,99430.75
2019-05-29T23:56:05.920Z,99423.27
2019-05-29T23:58:09.751Z,99427.52
